Terminal Aerodrome Forecast
Issued by NWS

Home | Current Version | Previous Version | Text Only | Print | Product List | Glossary On
Versions: 1 2 3 4 5 6 7 8 9 10 11 12 13 14 15 16 17 18 19 20 21
113
FTUS43 KDLH 181417 AAA
TAFHYR
TAF AMD
KHYR 181417Z 1814/1912 20010KT P6SM SKC WS020/24035KT
     FM181600 21008KT P6SM SKC
     FM190000 20003KT P6SM SKC
     FM190600 18002KT 4SM BR SCT001=

USA.gov is the U.S. government's official web portal to all federal, state and local government web resources and services.